MSC Ines — 3EFZ3 — position and weather

sailwx.info

Track history (hours):
 
Tides and Currents Weather Stations Pressure Air Temp Water Temp Dewpoint Dewpoint Depression Visibility Wind Speed Wind Dir Waves Ship Positions

MSC Ines

Last reported at 2015-Jan-01 03:05 UTC. Time now 2015-Jan-27 01:07 UTC.
Position N 30°35' E 122°57'.
Warning: this ship's position is 25 days out of date.

Length 349 m; draft 12.9 m.

Type: Ship (hazmat cat A). MMSI: 356112000.

Date/timePositionNaut miles runAvg speedWind from/ knotsBaromVisibWave heightAir tempDewpointWater temp
2015-Jan-01 03:05N 30°35' E 122°57'915.8
2015-Jan-01 02:32N 30°31' E 122°48'1717.1
2015-Jan-01 01:33N 30°31' E 122°28'1313.1
2015-Jan-01 00:33N 30°33' E 122°13'9 9.3
2014-Dec-31 23:33N 30°37' E 122°03'0 0.0
2014-Dec-31 22:29N 30°37' E 122°03'0 0.0
2014-Dec-31 21:32N 30°37' E 122°03'0 0.0
2014-Dec-31 20:32N 30°37' E 122°03'0 0.0
2014-Dec-31 19:32N 30°37' E 122°03'0 0.0
2014-Dec-31 18:32N 30°37' E 122°03'0 0.0
2014-Dec-31 17:32N 30°37' E 122°03'0 0.0
2014-Dec-31 16:33N 30°37' E 122°03'0 0.0
2014-Dec-31 15:33N 30°37' E 122°03'0 0.0
2014-Dec-31 14:32N 30°37' E 122°03'0 0.0
2014-Dec-31 13:32N 30°37' E 122°03'0 0.0
2014-Dec-31 12:25N 30°37' E 122°03'0 0.0
2014-Dec-31 11:25N 30°37' E 122°03'0 0.0
2014-Dec-31 10:31N 30°37' E 122°03'0 0.0
2014-Dec-31 09:31N 30°37' E 122°03'1 1.4
2014-Dec-31 08:33N 30°36' E 122°04'1212.1
2014-Dec-31 07:33N 30°33' E 122°18'7 7.4
2014-Dec-31 06:33N 30°32' E 122°26'6 6.3
2014-Dec-31 05:33N 30°30' E 122°34'8 6.5
2014-Dec-31 04:23N 30°28' E 122°42'5 6.2
2014-Dec-31 03:33N 30°25' E 122°46'44 8.8
2014-Dec-30 22:33N 29°42' E 122°33'1514.8
2014-Dec-30 21:33N 29°46' E 122°17'1212.3
2014-Dec-30 20:33N 29°55' E 122°08'5 4.3
2014-Dec-30 19:20N 29°54' E 122°02'0 0.0
2014-Dec-30 18:14N 29°54' E 122°02'0 0.0
2014-Dec-30 17:32N 29°54' E 122°02'0 0.0
2014-Dec-30 14:14N 29°54' E 122°02'0 0.0
2014-Dec-30 13:26N 29°54' E 122°02'0 0.0
2014-Dec-30 12:20N 29°54' E 122°02'0 0.1
2014-Dec-30 11:20N 29°54' E 122°02'0 0.1
2014-Dec-30 10:26N 29°54' E 122°02'0 0.0
2014-Dec-30 08:26N 29°54' E 122°02'0 0.0
2014-Dec-30 06:26N 29°54' E 122°02'0 0.0
2014-Dec-30 05:32N 29°54' E 122°02'0 0.0
2014-Dec-29 23:14N 29°54' E 122°02'0 0.0
2014-Dec-29 22:32N 29°54' E 122°02'7 7.3
2014-Dec-29 21:33N 29°55' E 122°10'1212.3
2014-Dec-29 20:33N 29°45' E 122°19'10 9.7
2014-Dec-29 19:33N 29°42' E 122°30'1312.6
2014-Dec-29 18:33N 29°41' E 122°45'1313.1
2014-Dec-29 17:33N 29°41' E 122°60'42115.0
2014-Dec-28 13:32N 23°57' E 118°27'1818.7
2014-Dec-28 12:33N 23°45' E 118°11'24217.0
2014-Dec-27 22:18N 22°15' E 114°07'5 7.3
2014-Dec-27 21:33N 22°20' E 114°07'0 0.1
2014-Dec-27 20:29N 22°20' E 114°07'0 0.0
2014-Dec-27 19:32N 22°20' E 114°07'0 0.0
2014-Dec-27 18:32N 22°20' E 114°07'0 0.0
2014-Dec-27 17:32N 22°20' E 114°07'0 0.0
2014-Dec-27 16:29N 22°20' E 114°07'0 0.0
2014-Dec-27 15:29N 22°20' E 114°07'0 0.0
2014-Dec-27 14:14N 22°20' E 114°07'0 0.0
2014-Dec-27 13:32N 22°20' E 114°07'0 0.0
2014-Dec-27 12:32N 22°20' E 114°07'0 0.0
2014-Dec-27 11:32N 22°20' E 114°07'0 0.0
2014-Dec-27 10:09N 22°20' E 114°07'0 0.0
2014-Dec-27 09:26N 22°20' E 114°07'0 0.0
2014-Dec-27 08:05N 22°20' E 114°07'0 0.0
2014-Dec-27 07:30N 22°20' E 114°07'0 0.0
2014-Dec-27 06:32N 22°20' E 114°07'0 0.0
2014-Dec-27 05:21N 22°20' E 114°07'2 2.4
2014-Dec-27 04:34N 22°20' E 114°05'1211.6
2014-Dec-27 03:33N 22°25' E 113°53'3 2.7
2014-Dec-27 02:29N 22°27' E 113°53'0 0.0
2014-Dec-27 01:29N 22°27' E 113°53'0 0.0
2014-Dec-27 00:17N 22°27' E 113°53'0 0.0
2014-Dec-26 23:29N 22°27' E 113°53'0 0.0
2014-Dec-26 22:29N 22°27' E 113°53'0 0.0
2014-Dec-26 21:29N 22°27' E 113°53'0 0.0
2014-Dec-26 20:29N 22°27' E 113°53'0 0.0
2014-Dec-26 19:29N 22°27' E 113°53'0 0.0
2014-Dec-26 18:23N 22°27' E 113°53'0 0.0
2014-Dec-26 17:29N 22°27' E 113°53'0 0.0
2014-Dec-26 16:29N 22°27' E 113°53'0 0.0
2014-Dec-26 15:29N 22°27' E 113°53'0 0.0
2014-Dec-26 14:29N 22°27' E 113°53'0 0.0
2014-Dec-26 13:29N 22°27' E 113°53'0 0.0
2014-Dec-26 12:29N 22°27' E 113°53'0 0.0
2014-Dec-26 11:29N 22°27' E 113°53'0 0.0
2014-Dec-26 10:29N 22°27' E 113°53'0 0.0
2014-Dec-26 09:29N 22°27' E 113°53'0 0.0
2014-Dec-26 08:30N 22°27' E 113°53'0 0.0
2014-Dec-26 07:30N 22°27' E 113°53'0 0.0
2014-Dec-26 06:30N 22°27' E 113°53'0 0.0
2014-Dec-26 05:24N 22°27' E 113°53'0 0.0
2014-Dec-26 04:24N 22°27' E 113°53'0 0.0
2014-Dec-26 03:30N 22°27' E 113°53'0 0.0
2014-Dec-26 02:30N 22°27' E 113°53'0 0.0
2014-Dec-26 01:30N 22°27' E 113°53'0 0.4
2014-Dec-26 00:33N 22°27' E 113°53'16 7.8
2014-Dec-25 22:33N 22°17' E 114°06'1010.0
2014-Dec-25 21:31N 22°10' E 114°13'1111.3
2014-Dec-25 20:33N 22°04' E 114°24'4 4.3
2014-Dec-25 19:33N 21°60' E 114°25'3 2.4
2014-Dec-25 18:29N 22°01' E 114°27'3 2.4
2014-Dec-25 17:20N 22°03' E 114°29'2 2.4
2014-Dec-25 16:33N 22°04' E 114°31'3 2.6
2014-Dec-25 15:33N 22°05' E 114°34'3 2.5
2014-Dec-25 14:29N 22°06' E 114°36'5 2.6
2014-Dec-25 12:33N 22°07' E 114°42'18814.2
2014-Dec-24 23:18N 23°27' E 117°47'1215.1
2014-Dec-24 22:28N 23°35' E 117°57'1415.5
2014-Dec-24 21:33N 23°43' E 118°10'1615.6
2014-Dec-24 20:33N 23°52' E 118°24'1615.7
2014-Dec-24 19:33N 24°01' E 118°38'9115.1
2014-Dec-24 13:32N 24°50' E 120°02'361 7.8
2014-Dec-22 15:16N 30°18' E 122°52'1316.9
2014-Dec-22 14:32N 30°25' E 122°40'1714.9
2014-Dec-22 13:24N 30°32' E 122°22'1112.6
2014-Dec-22 12:33N 30°34' E 122°10'6 6.1
2014-Dec-22 11:32N 30°37' E 122°04'  
Track history (hours):
 
Tides and Currents Weather Stations Pressure Air Temp Water Temp Dewpoint Dewpoint Depression Visibility Wind Speed Wind Dir Waves Ship Positions

MSC Ines

Last reported at 2015-Jan-01 03:05 UTC. Time now 2015-Jan-27 01:07 UTC.
Position N 30°35' E 122°57'.
Warning: this ship's position is 25 days out of date.

Length 349 m; draft 12.9 m.

Type: Ship (hazmat cat A). MMSI: 356112000.

Date/timePositionNaut miles runAvg speedWind from/ knotsBaromVisibWave heightAir tempDewpointWater temp
2015-Jan-01 03:05N 30°35' E 122°57'915.8
2015-Jan-01 02:32N 30°31' E 122°48'1717.1
2015-Jan-01 01:33N 30°31' E 122°28'1313.1
2015-Jan-01 00:33N 30°33' E 122°13'9 9.3
2014-Dec-31 23:33N 30°37' E 122°03'0 0.0
2014-Dec-31 22:29N 30°37' E 122°03'0 0.0
2014-Dec-31 21:32N 30°37' E 122°03'0 0.0
2014-Dec-31 20:32N 30°37' E 122°03'0 0.0
2014-Dec-31 19:32N 30°37' E 122°03'0 0.0
2014-Dec-31 18:32N 30°37' E 122°03'0 0.0
2014-Dec-31 17:32N 30°37' E 122°03'0 0.0
2014-Dec-31 16:33N 30°37' E 122°03'0 0.0
2014-Dec-31 15:33N 30°37' E 122°03'0 0.0
2014-Dec-31 14:32N 30°37' E 122°03'0 0.0
2014-Dec-31 13:32N 30°37' E 122°03'0 0.0
2014-Dec-31 12:25N 30°37' E 122°03'0 0.0
2014-Dec-31 11:25N 30°37' E 122°03'0 0.0
2014-Dec-31 10:31N 30°37' E 122°03'0 0.0
2014-Dec-31 09:31N 30°37' E 122°03'1 1.4
2014-Dec-31 08:33N 30°36' E 122°04'1212.1
2014-Dec-31 07:33N 30°33' E 122°18'7 7.4
2014-Dec-31 06:33N 30°32' E 122°26'6 6.3
2014-Dec-31 05:33N 30°30' E 122°34'8 6.5
2014-Dec-31 04:23N 30°28' E 122°42'5 6.2
2014-Dec-31 03:33N 30°25' E 122°46'44 8.8
2014-Dec-30 22:33N 29°42' E 122°33'1514.8
2014-Dec-30 21:33N 29°46' E 122°17'1212.3
2014-Dec-30 20:33N 29°55' E 122°08'5 4.3
2014-Dec-30 19:20N 29°54' E 122°02'0 0.0
2014-Dec-30 18:14N 29°54' E 122°02'0 0.0
2014-Dec-30 17:32N 29°54' E 122°02'0 0.0
2014-Dec-30 14:14N 29°54' E 122°02'0 0.0
2014-Dec-30 13:26N 29°54' E 122°02'0 0.0
2014-Dec-30 12:20N 29°54' E 122°02'0 0.1
2014-Dec-30 11:20N 29°54' E 122°02'0 0.1
2014-Dec-30 10:26N 29°54' E 122°02'0 0.0
2014-Dec-30 08:26N 29°54' E 122°02'0 0.0
2014-Dec-30 06:26N 29°54' E 122°02'0 0.0
2014-Dec-30 05:32N 29°54' E 122°02'0 0.0
2014-Dec-29 23:14N 29°54' E 122°02'0 0.0
2014-Dec-29 22:32N 29°54' E 122°02'7 7.3
2014-Dec-29 21:33N 29°55' E 122°10'1212.3
2014-Dec-29 20:33N 29°45' E 122°19'10 9.7
2014-Dec-29 19:33N 29°42' E 122°30'1312.6
2014-Dec-29 18:33N 29°41' E 122°45'1313.1
2014-Dec-29 17:33N 29°41' E 122°60'42115.0
2014-Dec-28 13:32N 23°57' E 118°27'1818.7
2014-Dec-28 12:33N 23°45' E 118°11'24217.0
2014-Dec-27 22:18N 22°15' E 114°07'5 7.3
2014-Dec-27 21:33N 22°20' E 114°07'0 0.1
2014-Dec-27 20:29N 22°20' E 114°07'0 0.0
2014-Dec-27 19:32N 22°20' E 114°07'0 0.0
2014-Dec-27 18:32N 22°20' E 114°07'0 0.0
2014-Dec-27 17:32N 22°20' E 114°07'0 0.0
2014-Dec-27 16:29N 22°20' E 114°07'0 0.0
2014-Dec-27 15:29N 22°20' E 114°07'0 0.0
2014-Dec-27 14:14N 22°20' E 114°07'0 0.0
2014-Dec-27 13:32N 22°20' E 114°07'0 0.0
2014-Dec-27 12:32N 22°20' E 114°07'0 0.0
2014-Dec-27 11:32N 22°20' E 114°07'0 0.0
2014-Dec-27 10:09N 22°20' E 114°07'0 0.0
2014-Dec-27 09:26N 22°20' E 114°07'0 0.0
2014-Dec-27 08:05N 22°20' E 114°07'0 0.0
2014-Dec-27 07:30N 22°20' E 114°07'0 0.0
2014-Dec-27 06:32N 22°20' E 114°07'0 0.0
2014-Dec-27 05:21N 22°20' E 114°07'2 2.4
2014-Dec-27 04:34N 22°20' E 114°05'1211.6
2014-Dec-27 03:33N 22°25' E 113°53'3 2.7
2014-Dec-27 02:29N 22°27' E 113°53'0 0.0
2014-Dec-27 01:29N 22°27' E 113°53'0 0.0
2014-Dec-27 00:17N 22°27' E 113°53'0 0.0
2014-Dec-26 23:29N 22°27' E 113°53'0 0.0
2014-Dec-26 22:29N 22°27' E 113°53'0 0.0
2014-Dec-26 21:29N 22°27' E 113°53'0 0.0
2014-Dec-26 20:29N 22°27' E 113°53'0 0.0
2014-Dec-26 19:29N 22°27' E 113°53'0 0.0
2014-Dec-26 18:23N 22°27' E 113°53'0 0.0
2014-Dec-26 17:29N 22°27' E 113°53'0 0.0
2014-Dec-26 16:29N 22°27' E 113°53'0 0.0
2014-Dec-26 15:29N 22°27' E 113°53'0 0.0
2014-Dec-26 14:29N 22°27' E 113°53'0 0.0
2014-Dec-26 13:29N 22°27' E 113°53'0 0.0
2014-Dec-26 12:29N 22°27' E 113°53'0 0.0
2014-Dec-26 11:29N 22°27' E 113°53'0 0.0
2014-Dec-26 10:29N 22°27' E 113°53'0 0.0
2014-Dec-26 09:29N 22°27' E 113°53'0 0.0
2014-Dec-26 08:30N 22°27' E 113°53'0 0.0
2014-Dec-26 07:30N 22°27' E 113°53'0 0.0
2014-Dec-26 06:30N 22°27' E 113°53'0 0.0
2014-Dec-26 05:24N 22°27' E 113°53'0 0.0
2014-Dec-26 04:24N 22°27' E 113°53'0 0.0
2014-Dec-26 03:30N 22°27' E 113°53'0 0.0
2014-Dec-26 02:30N 22°27' E 113°53'0 0.0
2014-Dec-26 01:30N 22°27' E 113°53'0 0.4
2014-Dec-26 00:33N 22°27' E 113°53'16 7.8
2014-Dec-25 22:33N 22°17' E 114°06'1010.0
2014-Dec-25 21:31N 22°10' E 114°13'1111.3
2014-Dec-25 20:33N 22°04' E 114°24'4 4.3
2014-Dec-25 19:33N 21°60' E 114°25'3 2.4
2014-Dec-25 18:29N 22°01' E 114°27'3 2.4
2014-Dec-25 17:20N 22°03' E 114°29'2 2.4
2014-Dec-25 16:33N 22°04' E 114°31'3 2.6
2014-Dec-25 15:33N 22°05' E 114°34'3 2.5
2014-Dec-25 14:29N 22°06' E 114°36'5 2.6
2014-Dec-25 12:33N 22°07' E 114°42'18814.2
2014-Dec-24 23:18N 23°27' E 117°47'1215.1
2014-Dec-24 22:28N 23°35' E 117°57'1415.5
2014-Dec-24 21:33N 23°43' E 118°10'1615.6
2014-Dec-24 20:33N 23°52' E 118°24'1615.7
2014-Dec-24 19:33N 24°01' E 118°38'9115.1
2014-Dec-24 13:32N 24°50' E 120°02'361 7.8
2014-Dec-22 15:16N 30°18' E 122°52'1316.9
2014-Dec-22 14:32N 30°25' E 122°40'1714.9
2014-Dec-22 13:24N 30°32' E 122°22'1112.6
2014-Dec-22 12:33N 30°34' E 122°10'6 6.1
2014-Dec-22 11:32N 30°37' E 122°04'  

Dump ship's entire track history